Time;durP1;ratioP1;P1;durP2;ratioP2;P2;SDS_P1;SDS_P2;PMS_P1;PMS_P2;Temp;Humidity;BMP_temperature;BMP_pressure;BME280_temperature;BME280_humidity;BME280_pressure;Samples;Min_cycle;Max_cycle;Signal;HPM_P1;HPM_P2
2023/08/12 00:01:20;;;;;;;5.10;2.40;;;;;;;;;;5058265;28;20484;-71
2023/08/12 00:03:47;;;;;;;5.88;2.08;;;;;;;;;;5060806;28;20102;-71
2023/08/12 00:06:16;;;;;;;7.78;2.20;;;;;;;;;;5065088;28;20051;-71
2023/08/12 00:08:43;;;;;;;5.40;2.30;;;;;;;;;;5065164;28;20068;-71
2023/08/12 00:11:10;;;;;;;4.20;2.15;;;;;;;;;;5059896;28;20052;-71
2023/08/12 00:13:37;;;;;;;4.15;2.30;;;;;;;;;;5063702;28;20044;-71
2023/08/12 00:16:05;;;;;;;5.90;2.53;;;;;;;;;;5062733;28;20051;-71
2023/08/12 00:18:36;;;;;;;4.30;2.28;;;;;;;;;;5067358;28;20059;-71
2023/08/12 00:21:05;;;;;;;6.22;2.35;;;;;;;;;;5063033;28;20075;-71
2023/08/12 00:23:33;;;;;;;5.20;2.30;;;;;;;;;;5062016;28;20049;-71
2023/08/12 00:26:01;;;;;;;5.03;2.08;;;;;;;;;;5066099;28;20400;-72
2023/08/12 00:28:28;;;;;;;6.53;2.20;;;;;;;;;;5063972;28;20052;-71
2023/08/12 00:30:55;;;;;;;3.95;1.90;;;;;;;;;;5065248;28;20052;-71
2023/08/12 00:33:22;;;;;;;4.65;1.80;;;;;;;;;;5058324;28;20053;-71
2023/08/12 00:35:50;;;;;;;4.13;2.00;;;;;;;;;;5062553;28;20055;-71
2023/08/12 00:38:17;;;;;;;6.70;2.08;;;;;;;;;;5064156;28;20061;-71
2023/08/12 00:40:46;;;;;;;4.88;2.17;;;;;;;;;;5064084;28;20480;-71
2023/08/12 00:43:13;;;;;;;4.72;1.80;;;;;;;;;;5064055;28;20143;-71
2023/08/12 00:45:40;;;;;;;8.07;2.22;;;;;;;;;;5061371;28;20071;-71
2023/08/12 00:48:08;;;;;;;6.15;2.38;;;;;;;;;;5068164;28;20410;-71
2023/08/12 00:50:36;;;;;;;6.07;2.00;;;;;;;;;;5063525;28;20048;-71
2023/08/12 00:53:05;;;;;;;4.82;1.98;;;;;;;;;;5066351;28;20412;-71
2023/08/12 00:55:33;;;;;;;5.65;1.80;;;;;;;;;;5059605;28;20054;-71
2023/08/12 00:58:02;;;;;;;3.33;2.00;;;;;;;;;;5062303;28;20438;-71
2023/08/12 01:00:29;;;;;;;8.07;2.03;;;;;;;;;;5060499;28;20067;-71
2023/08/12 01:02:57;;;;;;;5.65;2.08;;;;;;;;;;5065026;28;20048;-71
2023/08/12 01:05:24;;;;;;;4.82;2.20;;;;;;;;;;5060678;28;20055;-71
2023/08/12 01:07:53;;;;;;;4.03;2.20;;;;;;;;;;5068066;28;20048;-71
2023/08/12 01:10:21;;;;;;;3.58;2.40;;;;;;;;;;5063787;28;20053;-71
2023/08/12 01:12:53;;;;;;;4.45;2.28;;;;;;;;;;5065699;28;20056;-71
2023/08/12 01:15:23;;;;;;;5.07;1.92;;;;;;;;;;5063514;28;20098;-71
2023/08/12 01:17:52;;;;;;;6.63;1.92;;;;;;;;;;5062249;28;20041;-71
2023/08/12 01:20:24;;;;;;;4.60;2.13;;;;;;;;;;5061737;28;20053;-71
2023/08/12 01:22:54;;;;;;;3.97;1.83;;;;;;;;;;5060852;28;20049;-71
2023/08/12 01:25:22;;;;;;;4.70;1.75;;;;;;;;;;5064407;28;20053;-71
2023/08/12 01:27:50;;;;;;;7.47;2.40;;;;;;;;;;5065720;28;20049;-70
2023/08/12 01:30:18;;;;;;;4.18;2.40;;;;;;;;;;5062728;28;20124;-71
2023/08/12 01:32:49;;;;;;;4.75;2.00;;;;;;;;;;5063174;28;20052;-71
2023/08/12 01:35:19;;;;;;;3.10;1.67;;;;;;;;;;5065968;28;20048;-71
2023/08/12 01:37:46;;;;;;;6.20;2.17;;;;;;;;;;5059167;28;20397;-71
2023/08/12 01:40:15;;;;;;;5.18;1.85;;;;;;;;;;5067013;28;20045;-71
2023/08/12 01:42:44;;;;;;;5.93;2.35;;;;;;;;;;5064948;28;20040;-71
2023/08/12 01:45:12;;;;;;;3.22;2.05;;;;;;;;;;5064173;28;20044;-71
2023/08/12 01:47:39;;;;;;;6.13;2.30;;;;;;;;;;5062306;28;20048;-71
2023/08/12 01:50:07;;;;;;;4.95;2.33;;;;;;;;;;5061193;28;20041;-71
2023/08/12 01:52:34;;;;;;;5.05;2.08;;;;;;;;;;5062262;28;20063;-71
2023/08/12 01:55:01;;;;;;;6.53;2.35;;;;;;;;;;5066240;28;20128;-71
2023/08/12 01:57:29;;;;;;;4.97;2.13;;;;;;;;;;5055939;28;20055;-71
2023/08/12 01:59:57;;;;;;;4.60;2.25;;;;;;;;;;5061778;28;20048;-71
2023/08/12 02:02:24;;;;;;;5.82;2.60;;;;;;;;;;5060008;28;20067;-71
2023/08/12 02:04:52;;;;;;;7.68;2.40;;;;;;;;;;5065083;28;20048;-71
2023/08/12 02:07:19;;;;;;;6.65;2.70;;;;;;;;;;5060596;28;20059;-71
2023/08/12 02:09:46;;;;;;;3.67;2.53;;;;;;;;;;5060174;28;20501;-71
2023/08/12 02:12:13;;;;;;;5.32;2.83;;;;;;;;;;5057944;28;20051;-71
2023/08/12 02:14:41;;;;;;;4.85;2.33;;;;;;;;;;5060989;28;20091;-71
2023/08/12 02:17:09;;;;;;;6.60;2.83;;;;;;;;;;5060942;28;20049;-71
2023/08/12 02:19:36;;;;;;;4.40;2.42;;;;;;;;;;5064759;28;20049;-71
2023/08/12 02:22:04;;;;;;;5.80;2.78;;;;;;;;;;5065480;28;20083;-71
2023/08/12 02:24:31;;;;;;;8.80;3.25;;;;;;;;;;5064963;28;20055;-71
2023/08/12 02:26:58;;;;;;;6.15;2.72;;;;;;;;;;5065125;28;20052;-71
2023/08/12 02:29:26;;;;;;;6.82;2.92;;;;;;;;;;5059172;28;20056;-71
2023/08/12 02:31:53;;;;;;;5.43;2.90;;;;;;;;;;5066747;28;20093;-71
2023/08/12 02:34:21;;;;;;;7.53;3.28;;;;;;;;;;5060058;28;20412;-71
2023/08/12 02:36:49;;;;;;;7.05;2.85;;;;;;;;;;5058721;28;20056;-71
2023/08/12 02:39:16;;;;;;;6.65;3.03;;;;;;;;;;5059405;28;20037;-71
2023/08/12 02:41:43;;;;;;;5.95;3.15;;;;;;;;;;5062495;28;20540;-71
2023/08/12 02:44:11;;;;;;;6.22;2.97;;;;;;;;;;5060418;28;20052;-71
2023/08/12 02:46:38;;;;;;;5.95;3.35;;;;;;;;;;5065443;28;20067;-72
2023/08/12 02:49:05;;;;;;;7.15;3.03;;;;;;;;;;5061652;28;20052;-72
2023/08/12 02:51:34;;;;;;;8.18;2.92;;;;;;;;;;5056773;28;20053;-71
2023/08/12 02:54:01;;;;;;;5.07;3.00;;;;;;;;;;5068895;28;20044;-72
2023/08/12 02:56:28;;;;;;;7.47;2.88;;;;;;;;;;5067277;28;20052;-71
2023/08/12 02:58:56;;;;;;;6.00;3.08;;;;;;;;;;5058644;28;20045;-71
2023/08/12 03:01:24;;;;;;;4.90;2.88;;;;;;;;;;5067162;28;20041;-71
2023/08/12 03:03:51;;;;;;;7.78;3.20;;;;;;;;;;5067548;28;20049;-71
2023/08/12 03:06:18;;;;;;;6.15;3.05;;;;;;;;;;5055950;28;20055;-71
2023/08/12 03:08:47;;;;;;;9.60;3.20;;;;;;;;;;5066340;28;20044;-71
2023/08/12 03:11:15;;;;;;;5.82;3.15;;;;;;;;;;5063216;28;20044;-71
2023/08/12 03:13:42;;;;;;;6.60;3.10;;;;;;;;;;5066702;28;20052;-71
2023/08/12 03:16:12;;;;;;;6.95;3.30;;;;;;;;;;5063053;28;20044;-71
2023/08/12 03:18:40;;;;;;;7.53;3.15;;;;;;;;;;5066064;28;20102;-71
2023/08/12 03:21:07;;;;;;;8.63;3.53;;;;;;;;;;5065928;28;20118;-71
2023/08/12 03:23:35;;;;;;;5.40;3.13;;;;;;;;;;5066054;28;20114;-71
2023/08/12 03:26:04;;;;;;;10.55;3.03;;;;;;;;;;5060309;28;20484;-71
2023/08/12 03:28:31;;;;;;;5.55;2.90;;;;;;;;;;5067732;28;20040;-71
2023/08/12 03:30:58;;;;;;;7.18;2.80;;;;;;;;;;5057184;28;20147;-71
2023/08/12 03:33:26;;;;;;;5.97;3.20;;;;;;;;;;5063820;28;20052;-71
2023/08/12 03:35:53;;;;;;;9.93;3.45;;;;;;;;;;5060506;28;20052;-71
2023/08/12 03:38:20;;;;;;;4.88;2.92;;;;;;;;;;5069501;28;20055;-71
2023/08/12 03:40:47;;;;;;;8.77;3.78;;;;;;;;;;5061006;28;20515;-71
2023/08/12 03:43:16;;;;;;;5.70;3.25;;;;;;;;;;5065238;28;20395;-71
2023/08/12 03:45:44;;;;;;;6.82;2.83;;;;;;;;;;5063694;28;20048;-71
2023/08/12 03:48:11;;;;;;;7.53;3.50;;;;;;;;;;5064845;28;20044;-71
2023/08/12 03:50:38;;;;;;;6.68;3.80;;;;;;;;;;5065258;28;20046;-71
2023/08/12 03:53:06;;;;;;;8.45;3.92;;;;;;;;;;5063090;28;20073;-71
2023/08/12 03:55:33;;;;;;;7.05;3.28;;;;;;;;;;5064723;28;20519;-71
2023/08/12 03:58:01;;;;;;;8.20;4.05;;;;;;;;;;5067675;28;20048;-71
2023/08/12 04:00:29;;;;;;;5.30;3.60;;;;;;;;;;5067877;28;20084;-71
2023/08/12 04:02:57;;;;;;;8.30;4.13;;;;;;;;;;5070095;28;20109;-71
2023/08/12 04:05:24;;;;;;;8.27;3.85;;;;;;;;;;5069210;28;20537;-71
2023/08/12 04:07:51;;;;;;;7.00;3.85;;;;;;;;;;5056373;28;20040;-71
2023/08/12 04:10:18;;;;;;;7.90;4.00;;;;;;;;;;5065471;28;20081;-71
2023/08/12 04:12:46;;;;;;;6.15;3.85;;;;;;;;;;5060166;28;20052;-71
2023/08/12 04:15:13;;;;;;;8.55;3.72;;;;;;;;;;5063156;28;20052;-71
2023/08/12 04:17:41;;;;;;;7.45;4.30;;;;;;;;;;5059616;28;20044;-71
2023/08/12 04:20:09;;;;;;;8.05;3.53;;;;;;;;;;5065426;28;20075;-71
2023/08/12 04:22:36;;;;;;;7.05;3.90;;;;;;;;;;5065708;28;20057;-71
2023/08/12 04:25:04;;;;;;;10.65;4.20;;;;;;;;;;5063538;28;20056;-71
2023/08/12 04:27:31;;;;;;;8.68;3.90;;;;;;;;;;5068477;28;20132;-71
2023/08/12 04:29:58;;;;;;;9.60;4.18;;;;;;;;;;5064164;28;20060;-71
2023/08/12 04:32:26;;;;;;;5.82;3.72;;;;;;;;;;5064704;28;20053;-71
2023/08/12 04:34:54;;;;;;;13.13;4.13;;;;;;;;;;5064879;28;20053;-71
2023/08/12 04:37:23;;;;;;;11.82;3.40;;;;;;;;;;5062323;28;20045;-71
2023/08/12 04:39:51;;;;;;;9.73;3.85;;;;;;;;;;5065466;28;20676;-71
2023/08/12 04:42:18;;;;;;;7.95;3.83;;;;;;;;;;5058419;28;20052;-71
2023/08/12 04:44:45;;;;;;;4.88;3.50;;;;;;;;;;5062498;28;20041;-71
2023/08/12 04:47:13;;;;;;;7.65;3.90;;;;;;;;;;5063002;28;20056;-71
2023/08/12 04:49:40;;;;;;;6.93;3.78;;;;;;;;;;5065061;28;20104;-71
2023/08/12 04:52:09;;;;;;;7.30;3.95;;;;;;;;;;5063292;28;20083;-71
2023/08/12 04:54:36;;;;;;;7.03;3.53;;;;;;;;;;5066361;28;20060;-71
2023/08/12 04:57:03;;;;;;;14.30;3.80;;;;;;;;;;5066087;28;20044;-71
2023/08/12 04:59:31;;;;;;;7.38;3.88;;;;;;;;;;5064585;28;20048;-71
2023/08/12 05:01:58;;;;;;;9.73;4.07;;;;;;;;;;5061040;28;20048;-71
2023/08/12 05:04:25;;;;;;;8.20;4.10;;;;;;;;;;5062398;28;20051;-71
2023/08/12 05:06:52;;;;;;;11.38;3.95;;;;;;;;;;5058219;28;20049;-71
2023/08/12 05:09:21;;;;;;;8.02;4.07;;;;;;;;;;5063470;28;20048;-71
2023/08/12 05:11:48;;;;;;;7.13;3.67;;;;;;;;;;5064739;28;20163;-71
2023/08/12 05:14:15;;;;;;;8.45;3.70;;;;;;;;;;5063100;28;20051;-71
2023/08/12 05:16:43;;;;;;;9.77;3.90;;;;;;;;;;5064430;28;20045;-71
2023/08/12 05:19:10;;;;;;;7.13;3.83;;;;;;;;;;5060552;28;20049;-71
2023/08/12 05:21:37;;;;;;;7.05;3.78;;;;;;;;;;5068872;28;20048;-71
2023/08/12 05:24:05;;;;;;;7.53;3.90;;;;;;;;;;5066383;28;20044;-71
2023/08/12 05:26:34;;;;;;;5.55;3.42;;;;;;;;;;5059123;28;20044;-71
2023/08/12 05:29:01;;;;;;;11.40;4.28;;;;;;;;;;5062860;28;20043;-71
2023/08/12 05:31:28;;;;;;;10.30;3.55;;;;;;;;;;5058611;28;20061;-71
2023/08/12 05:33:56;;;;;;;8.35;3.90;;;;;;;;;;5063468;28;20057;-71
2023/08/12 05:36:23;;;;;;;6.97;3.60;;;;;;;;;;5064753;28;20078;-71
2023/08/12 05:38:50;;;;;;;9.98;3.83;;;;;;;;;;5066771;28;20049;-71
2023/08/12 05:41:17;;;;;;;6.82;3.72;;;;;;;;;;5063934;28;20061;-71
2023/08/12 05:43:46;;;;;;;7.28;3.30;;;;;;;;;;5062341;28;20499;-71
2023/08/12 05:46:13;;;;;;;8.65;4.07;;;;;;;;;;5064425;28;20746;-72
2023/08/12 05:48:40;;;;;;;13.07;3.65;;;;;;;;;;5066337;28;20060;-72
2023/08/12 05:51:08;;;;;;;8.20;3.28;;;;;;;;;;5065596;28;20053;-71
2023/08/12 05:53:35;;;;;;;8.32;4.30;;;;;;;;;;5065538;28;20492;-71
2023/08/12 05:56:02;;;;;;;7.82;3.85;;;;;;;;;;5067233;28;20076;-71
2023/08/12 05:58:29;;;;;;;9.52;4.03;;;;;;;;;;5066581;28;20052;-71
2023/08/12 06:00:58;;;;;;;7.97;4.00;;;;;;;;;;5065048;28;20086;-71
2023/08/12 06:03:25;;;;;;;9.65;4.53;;;;;;;;;;5062971;28;20048;-71
2023/08/12 06:05:53;;;;;;;12.05;4.47;;;;;;;;;;5066864;28;20040;-71
2023/08/12 06:08:20;;;;;;;8.23;4.32;;;;;;;;;;5066785;28;20278;-70
2023/08/12 06:10:47;;;;;;;10.15;4.85;;;;;;;;;;5064291;28;20095;-71
2023/08/12 06:13:15;;;;;;;8.30;4.13;;;;;;;;;;5059171;28;20152;-71
2023/08/12 06:15:42;;;;;;;9.38;4.40;;;;;;;;;;5063884;28;20080;-71
2023/08/12 06:18:10;;;;;;;8.85;4.35;;;;;;;;;;5063539;28;20505;-71
2023/08/12 06:20:38;;;;;;;6.85;4.10;;;;;;;;;;5070772;28;20119;-71
2023/08/12 06:23:05;;;;;;;12.48;5.10;;;;;;;;;;5060521;28;20052;-70
2023/08/12 06:25:32;;;;;;;10.10;4.50;;;;;;;;;;5069135;28;20071;-71
2023/08/12 06:28:01;;;;;;;10.98;4.38;;;;;;;;;;5068003;28;20048;-71
2023/08/12 06:30:28;;;;;;;7.45;4.20;;;;;;;;;;5068164;28;20495;-71
2023/08/12 06:32:55;;;;;;;11.63;4.85;;;;;;;;;;5065322;28;20053;-71
2023/08/12 06:35:24;;;;;;;9.13;4.70;;;;;;;;;;5064164;28;20060;-70
2023/08/12 06:37:51;;;;;;;10.13;5.05;;;;;;;;;;5064524;28;20044;-70
2023/08/12 06:40:19;;;;;;;9.23;4.72;;;;;;;;;;5059552;28;20041;-70
2023/08/12 06:42:46;;;;;;;11.07;5.35;;;;;;;;;;5068471;28;20495;-71
2023/08/12 06:45:14;;;;;;;13.38;6.50;;;;;;;;;;5069884;28;20057;-71
2023/08/12 06:47:41;;;;;;;11.68;5.45;;;;;;;;;;5060386;28;20498;-71
2023/08/12 06:50:08;;;;;;;12.20;5.28;;;;;;;;;;5063014;28;20056;-71
2023/08/12 06:52:37;;;;;;;8.88;5.28;;;;;;;;;;5058651;28;20048;-70
2023/08/12 06:55:04;;;;;;;12.32;5.82;;;;;;;;;;5065804;28;20055;-70
2023/08/12 06:57:31;;;;;;;12.60;5.78;;;;;;;;;;5069129;28;20055;-70
2023/08/12 06:59:59;;;;;;;11.15;5.35;;;;;;;;;;5070316;28;20045;-71
2023/08/12 07:02:26;;;;;;;10.07;5.57;;;;;;;;;;5063519;28;20052;-71
2023/08/12 07:04:53;;;;;;;10.80;5.13;;;;;;;;;;5068407;28;20060;-70
2023/08/12 07:07:20;;;;;;;10.27;5.95;;;;;;;;;;5058315;28;20407;-70
2023/08/12 07:09:49;;;;;;;10.70;5.43;;;;;;;;;;5065545;28;20048;-71
2023/08/12 07:12:17;;;;;;;10.70;5.25;;;;;;;;;;5061472;28;20536;-70
2023/08/12 07:14:44;;;;;;;11.32;5.45;;;;;;;;;;5066654;28;20377;-71
2023/08/12 07:17:11;;;;;;;9.77;5.22;;;;;;;;;;5066117;28;20049;-70
2023/08/12 07:19:38;;;;;;;10.43;5.50;;;;;;;;;;5066141;28;20795;-70
2023/08/12 07:22:06;;;;;;;11.05;5.90;;;;;;;;;;5070084;28;20399;-70
2023/08/12 07:24:33;;;;;;;9.52;5.68;;;;;;;;;;5069494;28;20052;-71
2023/08/12 07:27:02;;;;;;;12.40;6.07;;;;;;;;;;5070151;28;20371;-71
2023/08/12 07:29:29;;;;;;;9.65;5.43;;;;;;;;;;5068055;28;20060;-71
2023/08/12 07:31:57;;;;;;;12.70;5.53;;;;;;;;;;5060241;28;20140;-71
2023/08/12 07:34:24;;;;;;;11.55;6.05;;;;;;;;;;5068972;28;20067;-71
2023/08/12 07:36:52;;;;;;;13.43;6.22;;;;;;;;;;5070126;28;20132;-71
2023/08/12 07:39:19;;;;;;;10.50;6.07;;;;;;;;;;5065531;28;20052;-70
2023/08/12 07:41:46;;;;;;;12.75;6.43;;;;;;;;;;5068642;28;20093;-70
2023/08/12 07:44:15;;;;;;;14.60;5.90;;;;;;;;;;5063198;28;20056;-70
2023/08/12 07:46:42;;;;;;;11.30;6.28;;;;;;;;;;5062511;28;20056;-71
2023/08/12 07:49:10;;;;;;;12.30;6.85;;;;;;;;;;5068653;28;20055;-70
2023/08/12 07:51:37;;;;;;;11.10;6.10;;;;;;;;;;5066167;28;20045;-71
2023/08/12 07:54:04;;;;;;;11.70;6.78;;;;;;;;;;5064331;28;20045;-71
2023/08/12 07:56:32;;;;;;;14.80;7.07;;;;;;;;;;5064733;28;20048;-70
2023/08/12 07:58:59;;;;;;;11.27;6.28;;;;;;;;;;5069465;28;20048;-71
2023/08/12 08:01:28;;;;;;;15.10;7.00;;;;;;;;;;5061278;28;20521;-71
2023/08/12 08:03:55;;;;;;;12.45;6.65;;;;;;;;;;5060368;28;20045;-70
2023/08/12 08:06:24;;;;;;;12.55;7.55;;;;;;;;;;5067986;28;20048;-70
2023/08/12 08:08:51;;;;;;;20.85;8.13;;;;;;;;;;5054759;28;20067;-70
2023/08/12 08:11:18;;;;;;;15.40;7.22;;;;;;;;;;5067380;28;20056;-70
2023/08/12 08:13:46;;;;;;;13.15;7.32;;;;;;;;;;5068050;28;20044;-70
2023/08/12 08:16:13;;;;;;;16.20;7.80;;;;;;;;;;5064165;28;20044;-70
2023/08/12 08:18:41;;;;;;;15.93;7.93;;;;;;;;;;5066422;28;20048;-70
2023/08/12 08:21:09;;;;;;;13.68;7.72;;;;;;;;;;5065410;28;20059;-70
2023/08/12 08:23:36;;;;;;;15.77;7.70;;;;;;;;;;5067721;28;20507;-70
2023/08/12 08:26:03;;;;;;;14.13;8.25;;;;;;;;;;5066979;28;20052;-70
2023/08/12 08:28:30;;;;;;;16.27;8.50;;;;;;;;;;5068075;28;20048;-70
2023/08/12 08:30:58;;;;;;;13.88;8.48;;;;;;;;;;5068167;28;20127;-70
2023/08/12 08:33:26;;;;;;;17.52;8.95;;;;;;;;;;5058807;28;20056;-70
2023/08/12 08:35:55;;;;;;;17.02;9.38;;;;;;;;;;5068002;28;20044;-70
2023/08/12 08:38:22;;;;;;;17.98;9.25;;;;;;;;;;5064179;28;20102;-70
2023/08/12 08:40:51;;;;;;;16.42;8.57;;;;;;;;;;5062532;28;20071;-70
2023/08/12 08:43:21;;;;;;;15.15;9.13;;;;;;;;;;5056439;28;20053;-70
2023/08/12 08:45:50;;;;;;;16.30;8.75;;;;;;;;;;5065592;28;20585;-70
2023/08/12 08:48:17;;;;;;;14.25;8.10;;;;;;;;;;5066091;28;20052;-70
2023/08/12 08:50:45;;;;;;;16.17;8.95;;;;;;;;;;5055838;28;20060;-70
2023/08/12 08:53:14;;;;;;;14.65;8.32;;;;;;;;;;5065690;28;20052;-70
2023/08/12 08:55:42;;;;;;;16.17;8.05;;;;;;;;;;5061941;28;20048;-70
2023/08/12 08:58:09;;;;;;;19.42;8.75;;;;;;;;;;5065003;28;20044;-70
2023/08/12 09:00:36;;;;;;;13.60;8.32;;;;;;;;;;5062502;28;20045;-70
2023/08/12 09:03:04;;;;;;;15.82;8.88;;;;;;;;;;5061178;28;20488;-70
2023/08/12 09:05:32;;;;;;;17.75;8.65;;;;;;;;;;5061960;28;20060;-70
2023/08/12 09:08:00;;;;;;;13.52;8.07;;;;;;;;;;5064889;28;20044;-70
2023/08/12 09:10:28;;;;;;;12.15;8.07;;;;;;;;;;5067664;28;20074;-70
2023/08/12 09:12:56;;;;;;;15.02;8.48;;;;;;;;;;5065631;28;20045;-69
2023/08/12 09:15:24;;;;;;;16.27;8.98;;;;;;;;;;5058055;28;20507;-69
2023/08/12 09:17:51;;;;;;;17.85;9.80;;;;;;;;;;5064544;28;20052;-70
2023/08/12 09:20:18;;;;;;;15.63;8.73;;;;;;;;;;5063798;28;20504;-69
2023/08/12 09:22:45;;;;;;;16.52;8.98;;;;;;;;;;5064979;28;20060;-70
2023/08/12 09:25:13;;;;;;;18.08;9.40;;;;;;;;;;5060995;28;20045;-69
2023/08/12 09:27:41;;;;;;;19.77;9.40;;;;;;;;;;5064388;28;20045;-69
2023/08/12 09:30:09;;;;;;;22.33;10.40;;;;;;;;;;5063854;28;20045;-70
2023/08/12 09:32:38;;;;;;;21.80;10.50;;;;;;;;;;5062193;28;20045;-70
2023/08/12 09:35:06;;;;;;;15.65;8.38;;;;;;;;;;5061759;28;20056;-70
2023/08/12 09:37:33;;;;;;;10.10;5.35;;;;;;;;;;5062013;28;20045;-70
2023/08/12 09:40:01;;;;;;;9.07;4.90;;;;;;;;;;5067789;28;20056;-69
2023/08/12 09:42:29;;;;;;;6.97;4.28;;;;;;;;;;5067519;28;20530;-68
2023/08/12 09:44:59;;;;;;;8.75;4.45;;;;;;;;;;5057275;28;20460;-67
2023/08/12 09:47:26;;;;;;;8.27;4.03;;;;;;;;;;5063670;28;20487;-68
2023/08/12 09:49:54;;;;;;;6.93;2.55;;;;;;;;;;5056945;28;20052;-68
2023/08/12 09:52:21;;;;;;;6.00;2.30;;;;;;;;;;5057512;28;20080;-69
2023/08/12 09:54:49;;;;;;;4.07;1.15;;;;;;;;;;5063034;28;20067;-69
2023/08/12 09:57:18;;;;;;;6.03;1.48;;;;;;;;;;5070789;28;20048;-69
2023/08/12 09:59:47;;;;;;;4.93;1.40;;;;;;;;;;5062992;28;20467;-69
2023/08/12 10:02:19;;;;;;;5.25;1.30;;;;;;;;;;5067870;28;20762;-69
2023/08/12 10:04:46;;;;;;;5.82;1.70;;;;;;;;;;5069348;28;20049;-68
2023/08/12 10:07:14;;;;;;;3.47;1.48;;;;;;;;;;5064795;28;20048;-68
2023/08/12 10:09:41;;;;;;;4.78;1.70;;;;;;;;;;5063007;28;20098;-68
2023/08/12 10:12:09;;;;;;;8.13;1.55;;;;;;;;;;5068731;28;20131;-68
2023/08/12 10:14:36;;;;;;;4.40;2.33;;;;;;;;;;5070792;28;20048;-68
2023/08/12 10:17:04;;;;;;;4.78;2.22;;;;;;;;;;5066814;28;20062;-68
2023/08/12 10:19:32;;;;;;;4.75;2.03;;;;;;;;;;5065682;28;20054;-68
2023/08/12 10:22:00;;;;;;;6.20;1.45;;;;;;;;;;5068509;28;20052;-68
2023/08/12 10:24:28;;;;;;;4.88;1.50;;;;;;;;;;5069048;28;20059;-68
2023/08/12 10:26:55;;;;;;;4.00;1.60;;;;;;;;;;5068710;28;20041;-68
2023/08/12 10:29:24;;;;;;;3.53;1.38;;;;;;;;;;5064486;28;20048;-68
2023/08/12 10:31:52;;;;;;;3.58;1.55;;;;;;;;;;5068611;28;20088;-68
2023/08/12 10:34:20;;;;;;;8.32;1.33;;;;;;;;;;5066406;28;20155;-69
2023/08/12 10:36:48;;;;;;;6.38;1.33;;;;;;;;;;5064678;28;20053;-68
2023/08/12 10:39:16;;;;;;;3.65;1.02;;;;;;;;;;5063483;28;20187;-69
2023/08/12 10:41:52;;;;;;;5.20;1.30;;;;;;;;;;5070221;28;20074;-69
2023/08/12 10:44:22;;;;;;;8.48;1.67;;;;;;;;;;5067890;28;20507;-69
2023/08/12 10:46:51;;;;;;;3.75;1.20;;;;;;;;;;5068256;28;20048;-69
2023/08/12 10:49:20;;;;;;;6.28;1.35;;;;;;;;;;5070183;28;20730;-69
2023/08/12 10:51:49;;;;;;;5.32;1.25;;;;;;;;;;5063491;28;20477;-69
2023/08/12 10:54:17;;;;;;;5.03;1.20;;;;;;;;;;5066932;28;20068;-68
2023/08/12 10:57:04;;;;;;;3.47;1.23;;;;;;;;;;5069954;28;20049;-67
2023/08/12 10:59:50;;;;;;;4.72;1.35;;;;;;;;;;5069088;28;20052;-67
2023/08/12 11:02:18;;;;;;;7.50;1.10;;;;;;;;;;5071141;28;20063;-67
2023/08/12 11:04:45;;;;;;;6.57;1.15;;;;;;;;;;5068120;28;20102;-68
2023/08/12 11:07:18;;;;;;;7.93;2.10;;;;;;;;;;5068927;28;20471;-68
2023/08/12 11:09:45;;;;;;;6.40;1.38;;;;;;;;;;5070356;28;20048;-68
2023/08/12 11:12:13;;;;;;;3.03;1.15;;;;;;;;;;5067640;28;20067;-67
2023/08/12 11:14:50;;;;;;;5.68;1.70;;;;;;;;;;5070613;28;20127;-67
2023/08/12 11:17:17;;;;;;;5.72;1.80;;;;;;;;;;5066354;28;20468;-68
2023/08/12 11:19:45;;;;;;;7.70;1.30;;;;;;;;;;5066812;28;20498;-68
2023/08/12 11:22:13;;;;;;;4.47;1.60;;;;;;;;;;5069847;28;20051;-69
2023/08/12 11:24:43;;;;;;;5.97;1.67;;;;;;;;;;5069291;28;20048;-70
2023/08/12 11:27:11;;;;;;;5.13;1.63;;;;;;;;;;5066097;28;20494;-71
2023/08/12 11:29:39;;;;;;;3.75;1.05;;;;;;;;;;5067692;28;20487;-74
2023/08/12 11:32:07;;;;;;;3.80;1.25;;;;;;;;;;5069261;28;20056;-73
2023/08/12 11:34:34;;;;;;;3.90;1.20;;;;;;;;;;5067575;28;20106;-73
2023/08/12 11:37:02;;;;;;;3.30;1.23;;;;;;;;;;5068859;28;20060;-73
2023/08/12 11:39:29;;;;;;;1.88;0.82;;;;;;;;;;5066167;28;20060;-74
2023/08/12 11:41:58;;;;;;;3.20;1.23;;;;;;;;;;5064804;28;20456;-73
2023/08/12 11:44:25;;;;;;;4.93;1.27;;;;;;;;;;5063687;28;20571;-74
2023/08/12 11:46:53;;;;;;;6.25;1.50;;;;;;;;;;5067619;28;20443;-73
2023/08/12 11:49:20;;;;;;;2.15;1.02;;;;;;;;;;5064942;28;20051;-73
2023/08/12 11:51:49;;;;;;;3.45;1.20;;;;;;;;;;5065820;28;20055;-73
2023/08/12 11:54:17;;;;;;;3.10;0.93;;;;;;;;;;5068147;28;20141;-73
2023/08/12 11:56:45;;;;;;;4.57;1.20;;;;;;;;;;5067561;28;20495;-73
2023/08/12 11:59:13;;;;;;;2.55;1.20;;;;;;;;;;5067400;28;20063;-73
2023/08/12 12:01:40;;;;;;;3.65;1.10;;;;;;;;;;5060410;28;20052;-73
2023/08/12 12:04:08;;;;;;;4.32;1.13;;;;;;;;;;5058920;28;20045;-73
2023/08/12 12:06:38;;;;;;;6.55;1.40;;;;;;;;;;5063006;28;20051;-73
2023/08/12 12:09:06;;;;;;;4.18;1.40;;;;;;;;;;5066895;28;20057;-74
2023/08/12 12:11:33;;;;;;;4.78;1.70;;;;;;;;;;5066040;28;20051;-73
2023/08/12 12:14:03;;;;;;;6.07;1.58;;;;;;;;;;5062852;28;20049;-73
2023/08/12 12:16:40;;;;;;;7.93;1.88;;;;;;;;;;5060179;28;20045;-73
2023/08/12 12:19:10;;;;;;;5.55;1.98;;;;;;;;;;5066120;28;20422;-72
2023/08/12 12:21:42;;;;;;;6.20;1.80;;;;;;;;;;5058361;28;20048;-73
2023/08/12 12:24:09;;;;;;;7.25;1.80;;;;;;;;;;5068824;28;20048;-73
2023/08/12 12:26:37;;;;;;;5.28;1.90;;;;;;;;;;5063648;28;20484;-73
2023/08/12 12:29:05;;;;;;;7.10;1.95;;;;;;;;;;5067586;28;20468;-73
2023/08/12 12:31:33;;;;;;;6.75;2.05;;;;;;;;;;5062997;28;20146;-73
2023/08/12 12:34:02;;;;;;;4.28;1.70;;;;;;;;;;5061334;28;20094;-73
2023/08/12 12:36:29;;;;;;;5.50;1.85;;;;;;;;;;5063296;28;20080;-73
2023/08/12 12:38:56;;;;;;;4.65;1.58;;;;;;;;;;5058852;28;20048;-72
2023/08/12 12:41:24;;;;;;;7.90;1.65;;;;;;;;;;5063108;28;20047;-72
2023/08/12 12:43:51;;;;;;;7.07;1.73;;;;;;;;;;5064810;28;20063;-73
2023/08/12 12:46:18;;;;;;;5.18;1.60;;;;;;;;;;5060894;28;20036;-73
2023/08/12 12:48:46;;;;;;;4.10;1.50;;;;;;;;;;5057255;28;20052;-74
2023/08/12 12:51:15;;;;;;;6.35;1.98;;;;;;;;;;5062368;28;20373;-72
2023/08/12 12:53:42;;;;;;;8.10;1.50;;;;;;;;;;5067470;28;20568;-72
2023/08/12 12:56:09;;;;;;;7.07;1.60;;;;;;;;;;5067057;28;20063;-73
2023/08/12 12:58:37;;;;;;;9.55;1.83;;;;;;;;;;5067004;28;20057;-72
2023/08/12 13:01:05;;;;;;;8.15;1.95;;;;;;;;;;5067658;28;20052;-72
2023/08/12 13:03:32;;;;;;;8.00;1.75;;;;;;;;;;5061319;28;20084;-73
2023/08/12 13:06:00;;;;;;;4.80;1.95;;;;;;;;;;5065569;28;20372;-72
2023/08/12 13:08:29;;;;;;;6.30;1.60;;;;;;;;;;5065092;28;20059;-72
2023/08/12 13:10:57;;;;;;;5.03;2.05;;;;;;;;;;5067003;28;20150;-73
2023/08/12 13:13:24;;;;;;;7.95;1.80;;;;;;;;;;5068029;28;20059;-74
2023/08/12 13:15:51;;;;;;;3.75;1.30;;;;;;;;;;5060965;28;20083;-74
2023/08/12 13:18:18;;;;;;;5.68;1.60;;;;;;;;;;5060594;28;20067;-73
2023/08/12 13:20:46;;;;;;;5.95;1.70;;;;;;;;;;5065110;28;20044;-74
2023/08/12 13:23:13;;;;;;;5.72;1.45;;;;;;;;;;5061152;28;20040;-75
2023/08/12 13:25:41;;;;;;;3.72;1.30;;;;;;;;;;5060888;28;20102;-74
2023/08/12 13:28:09;;;;;;;4.55;1.70;;;;;;;;;;5063998;28;20056;-73
2023/08/12 13:30:36;;;;;;;4.85;1.40;;;;;;;;;;5059078;28;20049;-75
2023/08/12 13:33:04;;;;;;;4.55;1.60;;;;;;;;;;5064331;28;20040;-72
2023/08/12 13:35:31;;;;;;;5.80;1.70;;;;;;;;;;5063241;28;20052;-72
2023/08/12 13:37:58;;;;;;;5.40;1.42;;;;;;;;;;5064048;28;20484;-74
2023/08/12 13:40:26;;;;;;;5.57;1.70;;;;;;;;;;5060156;28;20049;-75
2023/08/12 13:42:55;;;;;;;5.03;1.83;;;;;;;;;;5064974;28;20052;-73
2023/08/12 13:45:23;;;;;;;8.75;1.70;;;;;;;;;;5061239;28;20107;-73
2023/08/12 13:47:51;;;;;;;7.22;1.92;;;;;;;;;;5065101;28;20049;-73
2023/08/12 13:50:19;;;;;;;5.13;1.52;;;;;;;;;;5062869;28;20150;-73
2023/08/12 13:52:47;;;;;;;5.97;1.60;;;;;;;;;;5063044;28;20094;-73
2023/08/12 13:55:14;;;;;;;4.82;1.10;;;;;;;;;;5062011;28;20045;-73
2023/08/12 13:57:42;;;;;;;4.90;1.40;;;;;;;;;;5067026;28;20064;-74
2023/08/12 14:00:13;;;;;;;5.75;1.88;;;;;;;;;;5066560;28;20480;-74
2023/08/12 14:02:40;;;;;;;6.72;1.70;;;;;;;;;;5061557;28;20045;-73
2023/08/12 14:05:07;;;;;;;7.22;1.95;;;;;;;;;;5064932;28;20110;-74
2023/08/12 14:07:35;;;;;;;4.90;1.73;;;;;;;;;;5062164;28;20052;-74
2023/08/12 14:10:02;;;;;;;4.70;1.58;;;;;;;;;;5066936;28;20060;-74
2023/08/12 14:12:29;;;;;;;7.60;2.10;;;;;;;;;;5065560;28;20389;-73
2023/08/12 14:14:57;;;;;;;7.68;1.75;;;;;;;;;;5061566;28;20067;-73
2023/08/12 14:17:25;;;;;;;7.55;2.10;;;;;;;;;;5063785;28;20052;-73
2023/08/12 14:19:53;;;;;;;5.97;1.88;;;;;;;;;;5059246;28;20049;-73
2023/08/12 14:22:21;;;;;;;5.72;1.75;;;;;;;;;;5065305;28;20048;-75
2023/08/12 14:24:49;;;;;;;8.40;1.88;;;;;;;;;;5067975;28;20048;-74
2023/08/12 14:27:17;;;;;;;7.10;2.03;;;;;;;;;;5063324;28;20053;-74
2023/08/12 14:29:44;;;;;;;5.18;1.55;;;;;;;;;;5063973;28;20108;-75
2023/08/12 14:32:12;;;;;;;4.80;1.83;;;;;;;;;;5063385;28;20055;-73
2023/08/12 14:34:40;;;;;;;6.75;1.60;;;;;;;;;;5054711;28;20060;-74
2023/08/12 14:37:08;;;;;;;7.28;1.77;;;;;;;;;;5066440;28;20045;-76
2023/08/12 14:39:35;;;;;;;4.20;1.83;;;;;;;;;;5063635;28;20480;-75
2023/08/12 14:42:04;;;;;;;7.03;1.80;;;;;;;;;;5062662;28;20127;-76
2023/08/12 14:44:31;;;;;;;6.63;1.90;;;;;;;;;;5069650;28;20110;-74